• Join FlightAware (Why Join?)
  • Login
  • US Flag 
08:44PM EST


 

Airport Tracker/Info


-or-


 

Live Flight TrackerFlight Track Log ✈ DAL5971 ✈ 25-Oct-2013 ✈ KLGA - KBUF

Flight Track Log - Related Links

Times and Time Zones

All times are in EDT time to prevent confusion due to time zone crossing. See the DAL5971 flight status page for this flight to view local times or setup timezone preferences in your user account.

Time Position Orientation Groundspeed Altitude Reporting Facility
EDT Latitude Longitude Course Direction KTS MPH feet Rate Location/Type
12:49PM 40.8000 -73.8667 304° West 152 175 1,400  Level New York TRACON
12:50PM 40.8500 -73.8167 37° Northeast 218 251 3,100 2,160 Climbing New York TRACON
12:51PM 40.9000 -73.8167 360° North 248 285 5,600 2,160 Climbing New York TRACON
12:52PM 40.9790 -74.2941 304° West  Level Estimated
12:53PM 41.0292 -74.3998 309° West  Level Estimated
12:54PM 41.0793 -74.5057 304° West  Level Estimated
12:56PM 41.0750 -74.2230 360° North 100 115 16,300  Level FlightAware
12:56PM 41.1020 -74.2870 299° West 322 371 17,200 1,500 Climbing FlightAware
12:57PM 41.1350 -74.3630 300° West 330 380 18,500 1,020 Climbing FlightAware
12:58PM 41.1530 -74.4050 300° West 330 380 18,500  Level FlightAware
12:58PM 41.1820 -74.4750 299° West 330 380 18,500 2,040 Level FlightAware
12:59PM 41.2160 -74.5510 301° West 346 398 21,000 2,220 Climbing FlightAware
01:00PM 41.2460 -74.6210 300° West 346 398 21,200 1,740 Climbing FlightAware
01:00PM 41.3020 -74.7000 313° West 346 398 23,500 2,040 Climbing FlightAware
01:01PM 41.3250 -74.7370 310° West 346 398 23,500 1,440 Level FlightAware
01:01PM 41.3810 -74.8280 309° West 346 398 25,300 1,800 Climbing FlightAware
01:02PM 41.4200 -74.8930 309° West 376 433 26,000 540 Climbing FlightAware
01:03PM 41.4590 -74.9590 308° West 375 432 26,000  Level FlightAware
01:03PM 41.4930 -75.0190 307° West 375 432 26,000  Level FlightAware
01:04PM 41.5530 -75.1260 307° West 375 432 26,000  Level FlightAware
01:05PM 41.6240 -75.2750 303° West 375 432 26,000  Level FlightAware
01:06PM 41.6410 -75.3880 281° West 428 493 26,000  Level FlightAware
01:06PM 41.6630 -75.4590 293° West 421 484 26,000  Level FlightAware
01:07PM 41.6870 -75.5460 290° West 422 486 26,000  Level FlightAware
01:08PM 41.7250 -75.6470 297° West 422 486 26,000  Level FlightAware
01:08PM 41.7540 -75.7230 297° West 422 486 26,000  Level FlightAware
01:09PM 41.7810 -75.7960 296° West 422 486 26,000  Level FlightAware
01:10PM 41.8150 -76.0100 282° West 422 486 26,000  Level FlightAware
01:11PM 41.8370 -76.0870 291° West 422 486 26,000  Level FlightAware
01:11PM 41.8520 -76.1390 291° West 422 486 26,000  Level FlightAware
01:12PM 41.8830 -76.2470 291° West 422 486 26,000  Level FlightAware
01:13PM 41.9200 -76.3790 291° West 422 486 26,000  Level FlightAware
01:14PM 41.9836 -76.6092 291° West 423 487 26,000  Level Cleveland Center
01:14PM 41.9994 -76.6733 288° West 418 481 26,000  Level New York Center
01:15PM 42.0381 -76.8192 290° West 418 481 26,000  Level New York Center
01:16PM 42.0631 -76.9050 291° West 421 484 26,000  Level Cleveland Center
01:17PM 42.1028 -77.0517 290° West 419 482 26,000  Level Cleveland Center
01:18PM 42.1514 -77.1947 295° West 420 483 26,000 -180 Level Cleveland Center
01:19PM 42.2083 -77.3664 294° West 417 480 25,700 -1,200 Descending Cleveland Center
01:20PM 42.2536 -77.5067 294° West 410 472 23,600 -2,100 Descending Cleveland Center
01:21PM 42.2981 -77.6444 294° West 401 461 21,400 -2,160 Descending Cleveland Center
01:22PM 42.3419 -77.7775 294° West 391 450 19,200 -2,040 Descending Cleveland Center
01:23PM 42.3808 -77.9039 293° West 368 423 17,300 -1,860 Descending Cleveland Center
01:24PM 42.4206 -78.0269 294° West 357 411 15,400 -1,860 Descending Cleveland Center
01:25PM 42.4586 -78.1481 293° West 349 402 13,500 -1,800 Descending Cleveland Center
01:26PM 42.4961 -78.2667 293° West 343 395 11,700 -1,500 Descending Cleveland Center
01:27PM 42.5597 -78.3669 311° West 293 337 10,400 -1,440 Descending Cleveland Center
01:28PM 42.6233 -78.4128 332° Northwest 264 304 8,800 -1,620 Descending Cleveland Center
01:29PM 42.6931 -78.4406 344° North 262 302 7,100 -1,440 Descending Cleveland Center
01:30PM 42.7617 -78.4700 343° North 259 298 5,900 -1,200 Descending Cleveland Center
01:31PM 42.8292 -78.4961 344° North 256 295 4,600 -1,020 Descending Cleveland Center
01:32PM 42.8958 -78.5250 342° North 254 292 3,800 -1,080 Descending Cleveland Center
01:33PM 42.9736 -78.5611 341° North 250 288 2,400 -780 Descending Cleveland Center
01:34PM 43.0189 -78.6161 318° Northwest 237 273 2,200 -120 Descending Cleveland Center
01:36PM 42.9817 -78.6572 219° Southwest 223 257 2,200 -600 Level Cleveland Center
01:37PM 42.9500 -78.7167 234° Southwest 126 145 1,000 -1,080 Descending Buffalo TRACON